createdAt,value
2019-03-16T00:02:15.180Z,3.70
2019-03-16T00:04:47.050Z,3.70
2019-03-16T00:07:32.209Z,3.30
2019-03-16T00:09:52.159Z,3.80
2019-03-16T00:12:24.150Z,3.73
2019-03-16T00:14:55.900Z,3.60
2019-03-16T00:17:27.890Z,3.57
2019-03-16T00:19:59.611Z,3.80
2019-03-16T00:22:31.350Z,4.03
2019-03-16T00:25:03.040Z,3.60
2019-03-16T00:27:34.888Z,3.30
2019-03-16T00:30:06.780Z,2.53
2019-03-16T00:32:51.833Z,2.60
2019-03-16T00:35:23.578Z,2.33
2019-03-16T00:37:55.246Z,2.20
2019-03-16T00:40:26.937Z,2.33
2019-03-16T00:42:59.796Z,2.33
2019-03-16T00:45:31.495Z,2.37
2019-03-16T00:48:03.283Z,2.33
2019-03-16T00:50:35.183Z,2.30
2019-03-16T00:53:06.912Z,2.03
2019-03-16T00:55:38.704Z,2.77
2019-03-16T00:58:10.833Z,2.83
2019-03-16T01:00:42.587Z,2.27
2019-03-16T01:03:14.563Z,1.87
2019-03-16T01:05:46.453Z,2.10
2019-03-16T01:08:18.243Z,1.93
2019-03-16T01:10:50.146Z,2.33
2019-03-16T01:13:21.933Z,2.20
2019-03-16T01:15:54.068Z,2.17
2019-03-16T01:18:26.011Z,2.40
2019-03-16T01:20:57.824Z,2.57
2019-03-16T01:23:29.673Z,2.20
2019-03-16T01:26:01.383Z,2.53
2019-03-16T01:28:33.195Z,2.47
2019-03-16T01:31:04.842Z,2.43
2019-03-16T01:33:37.293Z,2.30
2019-03-16T01:36:09.081Z,2.40
2019-03-16T01:38:40.893Z,2.37
2019-03-16T01:41:12.503Z,2.00
2019-03-16T01:43:44.234Z,2.43
2019-03-16T01:46:16.148Z,2.13
2019-03-16T01:48:48.063Z,3.20
2019-03-16T01:51:19.861Z,3.17
2019-03-16T01:53:51.702Z,2.50
2019-03-16T01:56:23.425Z,2.67
2019-03-16T01:58:55.433Z,2.50
2019-03-16T02:01:27.287Z,2.50
2019-03-16T02:03:59.075Z,2.20
2019-03-16T02:06:30.914Z,2.20
2019-03-16T02:09:02.601Z,2.10
2019-03-16T02:11:34.662Z,2.13
2019-03-16T02:14:06.381Z,2.23
2019-03-16T02:16:38.153Z,2.93
2019-03-16T02:19:09.983Z,2.23
2019-03-16T02:21:41.797Z,2.13
2019-03-16T02:24:13.960Z,1.90
2019-03-16T02:26:46.021Z,2.13
2019-03-16T02:29:17.893Z,2.20
2019-03-16T02:31:49.634Z,2.10
2019-03-16T02:34:21.465Z,1.80
2019-03-16T02:36:54.244Z,2.17
2019-03-16T02:39:26.141Z,2.00
2019-03-16T02:41:58.021Z,2.10
2019-03-16T02:44:29.682Z,2.43
2019-03-16T02:47:01.373Z,1.80
2019-03-16T02:49:34.214Z,2.43
2019-03-16T02:52:06.183Z,1.90
2019-03-16T02:54:37.883Z,2.17
2019-03-16T02:57:09.574Z,1.80
2019-03-16T02:59:41.332Z,2.83
2019-03-16T03:02:13.014Z,2.10
2019-03-16T03:04:46.279Z,1.97
2019-03-16T03:07:18.126Z,2.20
2019-03-16T03:09:49.999Z,2.13
2019-03-16T03:12:21.981Z,2.40
2019-03-16T03:14:53.684Z,2.13
2019-03-16T03:17:25.613Z,2.10
2019-03-16T03:19:57.424Z,2.13
2019-03-16T03:22:29.242Z,2.20
2019-03-16T03:25:01.275Z,2.80
2019-03-16T03:27:33.083Z,2.00
2019-03-16T03:30:05.084Z,2.07
2019-03-16T03:32:37.234Z,2.37
2019-03-16T03:35:09.457Z,2.27
2019-03-16T03:37:41.377Z,2.63
2019-03-16T03:40:13.296Z,2.40
2019-03-16T03:42:45.215Z,2.53
2019-03-16T03:45:17.163Z,2.33
2019-03-16T03:47:49.244Z,2.53
2019-03-16T03:50:20.942Z,2.40
2019-03-16T03:52:52.684Z,2.33
2019-03-16T03:55:24.771Z,2.27
2019-03-16T03:57:56.522Z,2.20
2019-03-16T04:00:28.227Z,2.20
2019-03-16T04:03:00.231Z,2.73
2019-03-16T04:05:31.913Z,2.47
2019-03-16T04:08:03.673Z,1.80
2019-03-16T04:10:35.662Z,2.90
2019-03-16T04:13:07.476Z,2.97
2019-03-16T04:15:39.571Z,1.90
2019-03-16T04:18:11.601Z,2.30
2019-03-16T04:20:43.502Z,2.03
2019-03-16T04:23:15.313Z,2.30
2019-03-16T04:25:47.111Z,2.00
2019-03-16T04:28:18.914Z,2.27
2019-03-16T04:30:51.042Z,2.60
2019-03-16T04:33:22.844Z,2.07
2019-03-16T04:35:54.653Z,2.23
2019-03-16T04:38:26.363Z,2.77
2019-03-16T04:40:58.273Z,2.33
2019-03-16T04:43:30.033Z,2.27
2019-03-16T04:46:02.011Z,2.30
2019-03-16T04:48:34.165Z,2.80
2019-03-16T04:51:06.134Z,1.93
2019-03-16T04:53:37.893Z,2.10
2019-03-16T04:56:09.584Z,2.03
2019-03-16T04:58:41.543Z,2.20
2019-03-16T05:01:13.481Z,2.30
2019-03-16T05:03:46.053Z,2.47
2019-03-16T05:06:17.963Z,2.73
2019-03-16T05:08:49.713Z,2.57
2019-03-16T05:11:21.364Z,2.20
2019-03-16T05:13:53.943Z,2.30
2019-03-16T05:16:25.933Z,2.30
2019-03-16T05:18:57.863Z,2.33
2019-03-16T05:21:29.613Z,2.23
2019-03-16T05:24:02.869Z,2.03
2019-03-16T05:26:34.943Z,2.00
2019-03-16T05:29:06.711Z,1.97
2019-03-16T05:31:38.413Z,1.80
2019-03-16T05:34:10.214Z,1.80
2019-03-16T05:36:41.552Z,1.83
2019-03-16T05:39:12.863Z,2.33
2019-03-16T05:41:44.202Z,1.80
2019-03-16T05:44:16.823Z,2.27
2019-03-16T05:46:48.697Z,1.93
2019-03-16T05:49:20.462Z,1.90
2019-03-16T05:51:52.195Z,1.97
2019-03-16T05:54:23.905Z,2.10
2019-03-16T05:56:55.612Z,1.70
2019-03-16T05:59:28.502Z,1.97
2019-03-16T06:02:00.215Z,1.60
2019-03-16T06:04:31.995Z,1.93
2019-03-16T06:07:03.704Z,1.50
2019-03-16T06:09:35.476Z,1.83
2019-03-16T06:12:07.246Z,1.73
2019-03-16T06:14:39.981Z,1.60
2019-03-16T06:17:11.765Z,1.83
2019-03-16T06:19:43.517Z,2.17
2019-03-16T06:22:15.277Z,2.13
2019-03-16T06:24:47.002Z,2.20
2019-03-16T06:27:18.752Z,2.00
2019-03-16T06:29:50.593Z,2.00
2019-03-16T06:32:22.311Z,2.10
2019-03-16T06:34:55.003Z,1.80
2019-03-16T06:37:26.872Z,1.97
2019-03-16T06:39:59.568Z,2.03
2019-03-16T06:42:31.314Z,2.03
2019-03-16T06:45:03.067Z,1.83
2019-03-16T06:47:34.784Z,2.73
2019-03-16T06:50:08.504Z,2.53
2019-03-16T06:52:40.092Z,2.20
2019-03-16T06:55:11.954Z,2.40
2019-03-16T06:57:44.241Z,2.20
2019-03-16T07:00:16.221Z,2.27
2019-03-16T07:02:47.923Z,2.17
2019-03-16T07:05:23.436Z,2.17
2019-03-16T07:07:54.091Z,2.20
2019-03-16T07:10:25.970Z,2.50
2019-03-16T07:12:57.837Z,2.60
2019-03-16T07:15:29.559Z,2.50
2019-03-16T07:18:01.893Z,2.50
2019-03-16T07:20:33.641Z,2.50
2019-03-16T07:23:05.742Z,2.00
2019-03-16T07:25:37.471Z,2.67
2019-03-16T07:28:09.171Z,2.63
2019-03-16T07:30:40.906Z,2.93
2019-03-16T07:33:12.612Z,3.07
2019-03-16T07:35:44.535Z,2.60
2019-03-16T07:38:16.441Z,2.93
2019-03-16T07:40:48.169Z,2.77
2019-03-16T07:43:19.818Z,2.57
2019-03-16T07:45:51.529Z,3.03
2019-03-16T07:48:23.330Z,2.50
2019-03-16T07:50:55.068Z,2.30
2019-03-16T07:53:26.908Z,2.53
2019-03-16T07:55:59.045Z,2.30
2019-03-16T07:58:30.925Z,2.83
2019-03-16T08:01:03.617Z,2.70
2019-03-16T08:03:35.415Z,2.47
2019-03-16T08:06:07.335Z,3.17
2019-03-16T08:08:39.021Z,2.57
2019-03-16T08:11:10.785Z,2.90
2019-03-16T08:13:42.521Z,2.30
2019-03-16T08:16:14.204Z,2.73
2019-03-16T08:18:45.896Z,2.60
2019-03-16T08:21:17.659Z,2.23
2019-03-16T08:23:49.495Z,2.07
2019-03-16T08:26:21.254Z,2.70
2019-03-16T08:28:53.073Z,1.60
2019-03-16T08:31:24.767Z,1.40
2019-03-16T08:33:56.842Z,1.83
2019-03-16T08:36:28.507Z,1.60
2019-03-16T08:39:00.260Z,1.50
2019-03-16T08:41:32.216Z,1.50
2019-03-16T08:44:04.333Z,1.83
2019-03-16T08:46:36.122Z,1.80
2019-03-16T08:49:07.874Z,1.90
2019-03-16T08:51:39.513Z,1.80
2019-03-16T08:54:11.213Z,1.73
2019-03-16T08:56:42.916Z,1.87
2019-03-16T08:59:14.786Z,1.77
2019-03-16T09:01:46.516Z,1.70
2019-03-16T09:04:18.219Z,1.63
2019-03-16T09:06:52.627Z,2.10
2019-03-16T09:09:23.264Z,1.63
2019-03-16T09:11:55.004Z,2.13
2019-03-16T09:14:26.829Z,1.97
2019-03-16T09:16:58.544Z,1.70
2019-03-16T09:19:30.274Z,1.53
2019-03-16T09:22:02.066Z,1.87
2019-03-16T09:24:33.799Z,1.77
2019-03-16T09:27:06.598Z,1.40
2019-03-16T09:29:38.348Z,1.40
2019-03-16T09:32:10.109Z,1.90
2019-03-16T09:34:41.939Z,1.60
2019-03-16T09:37:15.399Z,1.70
2019-03-16T09:39:47.069Z,1.60
2019-03-16T09:42:18.780Z,1.50
2019-03-16T09:44:50.495Z,1.70
2019-03-16T09:47:22.325Z,1.60
2019-03-16T09:49:54.151Z,1.43
2019-03-16T09:52:25.894Z,1.63
2019-03-16T09:54:57.586Z,1.87
2019-03-16T09:57:29.354Z,2.60
2019-03-16T10:00:01.168Z,1.90
2019-03-16T10:02:33.007Z,1.93
2019-03-16T10:05:04.968Z,2.00
2019-03-16T10:07:36.987Z,2.03
2019-03-16T10:10:09.016Z,2.10
2019-03-16T10:12:40.844Z,2.00
2019-03-16T10:15:13.126Z,1.70
2019-03-16T10:17:44.856Z,2.10
2019-03-16T10:20:16.957Z,1.80
2019-03-16T10:22:48.817Z,2.10
2019-03-16T10:25:20.518Z,2.13
2019-03-16T10:27:52.310Z,2.70
2019-03-16T10:30:24.159Z,2.20
2019-03-16T10:32:55.899Z,2.10
2019-03-16T10:35:27.566Z,1.90
2019-03-16T10:37:59.288Z,2.00
2019-03-16T10:40:31.010Z,1.80
2019-03-16T10:43:02.803Z,1.83
2019-03-16T10:45:34.759Z,2.07
2019-03-16T10:48:06.708Z,2.10
2019-03-16T10:50:38.470Z,1.87
2019-03-16T10:53:10.316Z,1.77
2019-03-16T10:55:42.083Z,1.97
2019-03-16T10:58:14.177Z,2.43
2019-03-16T11:00:47.052Z,2.67
2019-03-16T11:03:19.842Z,2.63
2019-03-16T11:05:51.576Z,2.50
2019-03-16T11:08:23.296Z,2.63
2019-03-16T11:10:55.076Z,2.57
2019-03-16T11:13:26.733Z,2.80
2019-03-16T11:15:59.268Z,2.90
2019-03-16T11:18:30.931Z,2.03
2019-03-16T11:21:02.939Z,2.63
2019-03-16T11:23:34.802Z,2.33
2019-03-16T11:26:08.620Z,2.50
2019-03-16T11:28:41.657Z,2.73
2019-03-16T11:31:14.092Z,2.23
2019-03-16T11:33:48.308Z,2.77
2019-03-16T11:36:20.880Z,2.60
2019-03-16T11:38:52.881Z,2.37
2019-03-16T11:41:25.120Z,2.30
2019-03-16T11:43:58.572Z,2.20
2019-03-16T11:46:30.852Z,2.40
2019-03-16T11:49:03.360Z,2.43
2019-03-16T11:51:35.163Z,1.90
2019-03-16T11:54:07.377Z,2.30
2019-03-16T11:56:42.212Z,2.00
2019-03-16T11:59:21.544Z,2.20
2019-03-16T12:01:48.387Z,2.30
2019-03-16T12:04:20.723Z,2.33
2019-03-16T12:06:52.952Z,2.40
2019-03-16T12:09:26.563Z,2.30
2019-03-16T12:12:02.607Z,1.70
2019-03-16T12:14:36.542Z,2.83
2019-03-16T12:17:08.252Z,2.10
2019-03-16T12:19:40.042Z,2.23
2019-03-16T12:22:12.270Z,1.80
2019-03-16T12:24:46.308Z,2.30
2019-03-16T12:27:18.442Z,2.10
2019-03-16T12:29:53.068Z,1.70
2019-03-16T12:32:25.360Z,2.07
2019-03-16T12:34:59.058Z,2.03
2019-03-16T12:37:32.432Z,2.20
2019-03-16T12:40:04.486Z,2.30
2019-03-16T12:42:36.442Z,2.43
2019-03-16T12:45:11.092Z,2.40
2019-03-16T12:47:42.806Z,2.10
2019-03-16T12:50:15.051Z,2.03
2019-03-16T12:52:47.801Z,2.20
2019-03-16T12:55:20.894Z,2.30
2019-03-16T12:57:52.582Z,2.17
2019-03-16T13:00:24.571Z,2.10
2019-03-16T13:02:56.322Z,2.00
2019-03-16T13:05:28.384Z,2.20
2019-03-16T13:08:00.301Z,2.30
2019-03-16T13:10:32.080Z,1.80
2019-03-16T13:13:03.864Z,2.10
2019-03-16T13:15:36.092Z,2.80
2019-03-16T13:20:48.364Z,2.40
2019-03-16T13:23:20.139Z,2.10
2019-03-16T13:25:52.051Z,2.03
2019-03-16T13:28:23.853Z,2.30
2019-03-16T13:30:55.834Z,2.00
2019-03-16T13:33:27.554Z,2.10
2019-03-16T13:35:59.273Z,2.20
2019-03-16T13:38:31.145Z,2.20
2019-03-16T13:41:02.872Z,2.23
2019-03-16T13:43:34.622Z,2.47
2019-03-16T13:46:06.261Z,2.03
2019-03-16T13:48:38.211Z,2.20
2019-03-16T13:51:09.952Z,2.27
2019-03-16T13:53:41.634Z,2.10
2019-03-16T13:56:13.601Z,2.10
2019-03-16T13:58:45.512Z,2.30
2019-03-16T14:01:17.221Z,2.23
2019-03-16T14:03:48.982Z,2.20
2019-03-16T14:06:20.842Z,2.23
2019-03-16T14:08:52.498Z,2.27
2019-03-16T14:11:24.557Z,2.30
2019-03-16T14:13:56.206Z,2.23
2019-03-16T14:16:27.948Z,2.20
2019-03-16T14:19:00.038Z,2.37
2019-03-16T14:21:31.873Z,2.23
2019-03-16T14:24:03.646Z,1.83
2019-03-16T14:26:35.585Z,1.93
2019-03-16T14:29:07.367Z,1.77
2019-03-16T14:31:39.193Z,1.90
2019-03-16T14:34:10.587Z,2.20
2019-03-16T14:36:42.392Z,1.90
2019-03-16T14:39:14.058Z,2.60
2019-03-16T14:41:45.784Z,2.30
2019-03-16T14:44:17.500Z,3.30
2019-03-16T14:46:49.429Z,2.70
2019-03-16T14:49:21.094Z,3.30
2019-03-16T14:51:52.880Z,2.87
2019-03-16T14:54:24.644Z,2.77
2019-03-16T14:56:57.526Z,2.83
2019-03-16T14:59:29.244Z,3.00
2019-03-16T15:02:00.990Z,2.40
2019-03-16T15:04:32.606Z,3.27
2019-03-16T15:07:04.420Z,3.58
2019-03-16T15:09:36.161Z,3.30
2019-03-16T15:12:07.986Z,2.83
2019-03-16T15:14:40.769Z,2.50
2019-03-16T15:17:12.629Z,3.10
2019-03-16T15:19:44.490Z,2.40
2019-03-16T15:22:16.203Z,3.03
2019-03-16T15:24:48.035Z,3.07
2019-03-16T15:27:19.661Z,2.83
2019-03-16T15:29:51.344Z,3.40
2019-03-16T15:32:23.001Z,3.33
2019-03-16T15:34:54.805Z,3.47
2019-03-16T15:37:26.495Z,3.20
2019-03-16T15:39:58.175Z,3.30
2019-03-16T15:42:29.880Z,3.23
2019-03-16T15:45:01.701Z,3.60
2019-03-16T15:47:33.274Z,3.50
2019-03-16T15:50:04.995Z,3.20
2019-03-16T15:52:37.707Z,3.27
2019-03-16T15:55:10.084Z,3.90
2019-03-16T15:57:42.718Z,3.77
2019-03-16T16:00:15.505Z,3.27
2019-03-16T16:02:47.524Z,3.77
2019-03-16T16:05:19.203Z,3.87
2019-03-16T16:07:51.291Z,3.70
2019-03-16T16:10:26.840Z,3.90
2019-03-16T16:12:59.711Z,3.83
2019-03-16T16:15:32.521Z,3.50
2019-03-16T16:18:04.780Z,4.07
2019-03-16T16:20:36.925Z,3.97
2019-03-16T16:23:09.636Z,4.37
2019-03-16T16:25:41.663Z,4.03
2019-03-16T16:28:13.725Z,4.43
2019-03-16T16:30:45.465Z,4.60
2019-03-16T16:33:17.325Z,4.53
2019-03-16T16:35:49.357Z,4.37
2019-03-16T16:38:23.195Z,4.77
2019-03-16T16:40:54.896Z,4.67
2019-03-16T16:43:27.946Z,4.73
2019-03-16T16:45:59.685Z,5.40
2019-03-16T16:48:31.535Z,5.53
2019-03-16T16:51:03.052Z,5.40
2019-03-16T16:53:34.955Z,5.20
2019-03-16T16:56:06.276Z,5.50
2019-03-16T16:58:38.122Z,5.50
2019-03-16T17:01:09.862Z,7.13
2019-03-16T17:03:41.555Z,6.40
2019-03-16T17:06:13.315Z,5.93
2019-03-16T17:08:45.029Z,6.00
2019-03-16T17:11:16.822Z,6.10
2019-03-16T17:13:48.778Z,5.87
2019-03-16T17:16:20.720Z,6.37
2019-03-16T17:18:52.463Z,6.60
2019-03-16T17:21:24.366Z,7.30
2019-03-16T17:23:56.148Z,6.40
2019-03-16T17:26:27.921Z,7.00
2019-03-16T17:28:59.553Z,6.80
2019-03-16T17:31:41.652Z,7.03
2019-03-16T17:34:04.635Z,6.70
2019-03-16T17:36:36.391Z,7.77
2019-03-16T17:39:08.982Z,7.37
2019-03-16T17:41:41.020Z,7.80
2019-03-16T17:44:12.915Z,7.57
2019-03-16T17:46:45.652Z,7.97
2019-03-16T17:49:17.372Z,8.13
2019-03-16T17:51:49.173Z,7.73
2019-03-16T17:54:20.855Z,8.33
2019-03-16T17:56:52.810Z,8.77
2019-03-16T17:59:24.687Z,7.80
2019-03-16T18:01:56.453Z,8.10
2019-03-16T18:04:28.226Z,7.83
2019-03-16T18:07:00.204Z,8.17
2019-03-16T18:09:31.915Z,7.50
2019-03-16T18:12:03.751Z,8.33
2019-03-16T18:14:35.510Z,7.07
2019-03-16T18:17:07.391Z,7.27
2019-03-16T18:19:39.487Z,7.63
2019-03-16T18:22:11.299Z,7.47
2019-03-16T18:24:42.998Z,7.17
2019-03-16T18:27:14.763Z,7.33
2019-03-16T18:29:46.459Z,7.50
2019-03-16T18:32:18.380Z,6.87
2019-03-16T18:34:50.237Z,7.47
2019-03-16T18:37:21.888Z,7.47
2019-03-16T18:40:04.455Z,8.13
2019-03-16T18:42:36.314Z,8.03
2019-03-16T18:45:10.226Z,8.50
2019-03-16T18:47:41.874Z,8.23
2019-03-16T18:50:13.646Z,8.30
2019-03-16T18:52:45.433Z,9.13
2019-03-16T18:55:17.117Z,9.03
2019-03-16T18:57:49.067Z,10.10
2019-03-16T19:00:20.905Z,9.00
2019-03-16T19:02:52.690Z,9.17
2019-03-16T19:05:24.403Z,9.73
2019-03-16T19:07:56.266Z,9.40
2019-03-16T19:10:28.014Z,10.40
2019-03-16T19:12:59.710Z,9.27
2019-03-16T19:15:31.448Z,9.73
2019-03-16T19:18:03.252Z,10.70
2019-03-16T19:20:34.908Z,9.83
2019-03-16T19:23:06.948Z,9.17
2019-03-16T19:25:38.995Z,9.40
2019-03-16T19:28:10.787Z,9.63
2019-03-16T19:30:42.667Z,9.67
2019-03-16T19:33:14.406Z,9.90
2019-03-16T19:35:46.228Z,9.47
2019-03-16T19:38:18.956Z,11.13
2019-03-16T19:40:50.687Z,10.63
2019-03-16T19:43:22.569Z,11.70
2019-03-16T19:45:54.300Z,10.87
2019-03-16T19:48:26.208Z,10.33
2019-03-16T19:50:57.877Z,10.90
2019-03-16T19:53:29.738Z,16.33
2019-03-16T19:56:01.639Z,11.30
2019-03-16T19:58:33.457Z,11.03
2019-03-16T20:01:05.390Z,12.17
2019-03-16T20:03:37.228Z,11.93
2019-03-16T20:06:08.999Z,12.27
2019-03-16T20:08:40.800Z,11.50
2019-03-16T20:11:12.548Z,11.80
2019-03-16T20:13:44.509Z,12.00
2019-03-16T20:16:16.358Z,11.47
2019-03-16T20:18:48.234Z,11.60
2019-03-16T20:21:19.871Z,11.43
2019-03-16T20:23:51.764Z,11.50
2019-03-16T20:26:23.624Z,11.70
2019-03-16T20:28:55.344Z,11.53
2019-03-16T20:31:28.103Z,12.67
2019-03-16T20:33:59.814Z,11.73
2019-03-16T20:36:31.564Z,11.33
2019-03-16T20:39:04.653Z,12.00
2019-03-16T20:41:36.734Z,10.93
2019-03-16T20:44:08.599Z,11.27
2019-03-16T20:46:40.618Z,11.50
2019-03-16T20:49:13.279Z,11.87
2019-03-16T20:51:45.178Z,12.20
2019-03-16T20:54:16.885Z,11.13
2019-03-16T20:56:48.645Z,11.53
2019-03-16T20:59:21.511Z,11.67
2019-03-16T21:01:53.209Z,11.70
2019-03-16T21:04:25.055Z,12.17
2019-03-16T21:06:56.713Z,12.53
2019-03-16T21:09:28.449Z,12.53
2019-03-16T21:12:00.104Z,12.70
2019-03-16T21:14:31.989Z,13.17
2019-03-16T21:17:04.014Z,14.43
2019-03-16T21:19:36.051Z,14.50
2019-03-16T21:22:08.026Z,14.53
2019-03-16T21:24:39.835Z,14.17
2019-03-16T21:27:11.558Z,14.37
2019-03-16T21:29:43.289Z,13.33
2019-03-16T21:32:14.976Z,13.13
2019-03-16T21:34:46.868Z,12.67
2019-03-16T21:37:18.558Z,12.00
2019-03-16T21:39:50.370Z,11.67
2019-03-16T21:42:22.368Z,11.87
2019-03-16T21:44:54.314Z,12.43
2019-03-16T21:47:26.072Z,12.40
2019-03-16T21:49:57.860Z,13.00
2019-03-16T21:52:29.592Z,12.83
2019-03-16T21:55:01.430Z,13.57
2019-03-16T21:57:33.147Z,12.80
2019-03-16T22:00:05.746Z,13.53
2019-03-16T22:02:37.758Z,13.67
2019-03-16T22:05:09.489Z,13.23
2019-03-16T22:07:41.171Z,13.37
2019-03-16T22:10:13.152Z,13.87
2019-03-16T22:12:45.123Z,14.83
2019-03-16T22:15:17.408Z,14.13
2019-03-16T22:17:49.441Z,15.80
2019-03-16T22:20:21.336Z,15.30
2019-03-16T22:22:53.158Z,17.13
2019-03-16T22:25:25.020Z,15.30
2019-03-16T22:27:56.756Z,14.73
2019-03-16T22:30:28.805Z,15.10
2019-03-16T22:33:00.449Z,14.60
2019-03-16T22:35:32.219Z,15.23
2019-03-16T22:38:04.077Z,15.53
2019-03-16T22:40:35.889Z,15.90
2019-03-16T22:43:07.572Z,14.87
2019-03-16T22:45:39.413Z,14.97
2019-03-16T22:48:11.118Z,16.17
2019-03-16T22:50:42.842Z,15.23
2019-03-16T22:53:14.736Z,15.00
2019-03-16T22:55:46.463Z,15.63
2019-03-16T22:58:18.247Z,14.33
2019-03-16T23:00:52.664Z,14.47
2019-03-16T23:03:24.608Z,14.70
2019-03-16T23:05:56.388Z,15.17
2019-03-16T23:08:28.203Z,14.37
2019-03-16T23:10:59.881Z,14.47
2019-03-16T23:13:32.071Z,14.93
2019-03-16T23:16:03.669Z,16.23
2019-03-16T23:18:35.600Z,16.40
2019-03-16T23:21:07.605Z,14.10
2019-03-16T23:23:42.495Z,14.37
2019-03-16T23:26:13.381Z,13.40
2019-03-16T23:28:45.261Z,14.50
2019-03-16T23:31:17.194Z,13.53
2019-03-16T23:33:49.071Z,12.73
2019-03-16T23:36:21.063Z,12.50
2019-03-16T23:38:52.706Z,12.40
2019-03-16T23:41:24.406Z,11.77
2019-03-16T23:43:56.011Z,12.30
2019-03-16T23:46:28.006Z,11.80
2019-03-16T23:48:59.793Z,10.83
2019-03-16T23:51:31.600Z,11.70
2019-03-16T23:54:03.284Z,10.80
2019-03-16T23:56:35.278Z,11.00
2019-03-16T23:59:06.993Z,10.90
